Time;durP1;ratioP1;P1;durP2;ratioP2;P2;SDS_P1;SDS_P2;PMS_P1;PMS_P2;Temp;Humidity;BMP_temperature;BMP_pressure;BME280_temperature;BME280_humidity;BME280_pressure;Samples;Min_cycle;Max_cycle;Signal;HPM_P1;HPM_P2
2021/08/18 00:01:32;;;;;;;2.10;1.00;;;14.00;99.90;;;;;;5032747;28;20439;-82
2021/08/18 00:03:59;;;;;;;1.70;0.70;;;14.00;99.90;;;;;;5033073;28;20431;-82
2021/08/18 00:06:26;;;;;;;1.67;0.40;;;14.00;99.90;;;;;;5033699;28;20545;-82
2021/08/18 00:08:52;;;;;;;1.90;0.80;;;14.10;99.90;;;;;;5036783;28;20446;-82
2021/08/18 00:11:19;;;;;;;3.57;1.40;;;14.10;99.90;;;;;;5036882;28;20454;-82
2021/08/18 00:13:46;;;;;;;0.50;0.50;;;14.10;99.90;;;;;;5037269;28;20443;-82
2021/08/18 00:16:15;;;;;;;0.70;0.70;;;14.10;99.90;;;;;;5036629;28;20458;-82
2021/08/18 00:18:42;;;;;;;0.93;0.70;;;14.10;99.90;;;;;;5036876;28;20450;-82
2021/08/18 00:21:08;;;;;;;5.17;1.13;;;14.10;99.90;;;;;;5037530;28;20458;-81
2021/08/18 00:23:35;;;;;;;3.83;0.80;;;14.10;99.90;;;;;;5036685;28;20466;-82
2021/08/18 00:26:02;;;;;;;2.50;1.37;;;14.10;99.90;;;;;;5036676;28;20489;-82
2021/08/18 00:28:29;;;;;;;1.73;0.70;;;14.10;99.90;;;;;;5036436;28;20441;-82
2021/08/18 00:30:56;;;;;;;4.93;0.90;;;14.10;99.90;;;;;;5036359;28;20438;-81
2021/08/18 00:33:24;;;;;;;1.33;1.23;;;14.00;99.90;;;;;;5036207;28;20996;-82
2021/08/18 00:35:51;;;;;;;2.00;1.50;;;14.10;99.90;;;;;;5036261;28;20454;-81
2021/08/18 00:38:17;;;;;;;1.27;0.80;;;14.10;99.90;;;;;;5040519;28;20458;-82
2021/08/18 00:40:44;;;;;;;1.33;0.40;;;14.10;99.90;;;;;;5036153;28;20470;-82
2021/08/18 00:43:11;;;;;;;1.03;0.47;;;14.10;99.90;;;;;;5036322;28;20466;-82
2021/08/18 00:45:38;;;;;;;5.27;2.17;;;14.10;99.90;;;;;;5036346;28;20478;-82
2021/08/18 00:48:05;;;;;;;2.43;1.03;;;14.10;99.90;;;;;;5036324;28;20509;-82
2021/08/18 00:50:33;;;;;;;3.30;0.77;;;14.10;99.90;;;;;;5036073;28;20431;-82
2021/08/18 00:53:00;;;;;;;3.07;1.00;;;14.10;99.90;;;;;;5035933;28;20460;-82
2021/08/18 00:55:27;;;;;;;3.93;0.70;;;14.10;99.90;;;;;;5035892;28;20439;-82
2021/08/18 00:57:56;;;;;;;3.63;1.00;;;14.20;99.90;;;;;;5035869;28;20442;-82
2021/08/18 01:00:24;;;;;;;5.47;0.97;;;14.20;99.90;;;;;;5036082;28;20450;-82
2021/08/18 01:02:51;;;;;;;3.60;0.93;;;14.20;99.90;;;;;;5035974;28;20474;-82
2021/08/18 01:05:19;;;;;;;1.40;0.90;;;14.10;99.90;;;;;;5035652;28;20946;-82
2021/08/18 01:07:49;;;;;;;1.70;0.83;;;14.10;99.90;;;;;;5035952;28;20455;-82
2021/08/18 01:10:19;;;;;;;2.63;1.13;;;14.10;99.90;;;;;;5035668;28;21025;-82
2021/08/18 01:12:46;;;;;;;2.83;0.60;;;14.10;99.90;;;;;;5035805;28;20466;-82
2021/08/18 01:15:16;;;;;;;2.67;0.93;;;14.10;99.90;;;;;;5035792;28;20461;-82
2021/08/18 01:17:44;;;;;;;2.00;1.33;;;14.10;99.90;;;;;;5035166;28;20453;-82
2021/08/18 01:20:12;;;;;;;1.00;0.67;;;14.10;99.90;;;;;;5035908;28;20455;-82
2021/08/18 01:22:39;;;;;;;2.40;1.10;;;14.10;99.90;;;;;;5035527;28;20458;-82
2021/08/18 01:25:08;;;;;;;2.00;1.20;;;14.10;99.90;;;;;;5035397;28;20439;-82
2021/08/18 01:27:36;;;;;;;1.63;0.67;;;14.10;99.90;;;;;;5035539;28;20488;-82
2021/08/18 01:30:06;;;;;;;2.73;0.77;;;14.10;99.90;;;;;;5035793;28;20451;-82
2021/08/18 01:32:43;;;;;;;5.50;1.60;;;14.10;99.90;;;;;;5035444;28;20455;-82
2021/08/18 01:35:18;;;;;;;3.03;1.43;;;14.10;99.90;;;;;;5035584;28;20879;-82
2021/08/18 01:37:45;;;;;;;4.20;1.20;;;14.00;99.90;;;;;;5035585;28;20438;-82
2021/08/18 01:40:12;;;;;;;2.50;1.03;;;14.00;99.90;;;;;;5034957;28;20573;-82
2021/08/18 01:42:39;;;;;;;1.60;1.03;;;14.00;99.90;;;;;;5035153;28;20788;-82
2021/08/18 01:45:09;;;;;;;1.43;0.77;;;14.00;99.90;;;;;;5035277;28;20442;-82
2021/08/18 01:47:36;;;;;;;1.50;1.40;;;14.00;99.90;;;;;;5035374;28;20490;-82
2021/08/18 01:50:03;;;;;;;4.77;1.53;;;14.00;99.90;;;;;;5034858;28;20974;-82
2021/08/18 01:52:30;;;;;;;2.63;1.07;;;14.00;99.90;;;;;;5034811;28;20982;-82
2021/08/18 01:54:59;;;;;;;0.93;0.63;;;14.00;99.90;;;;;;5034806;28;20442;-83
2021/08/18 01:57:26;;;;;;;2.53;0.80;;;14.00;99.90;;;;;;5035092;28;20494;-82
2021/08/18 01:59:54;;;;;;;3.00;0.90;;;14.00;99.90;;;;;;5035014;28;20442;-82
2021/08/18 02:02:22;;;;;;;3.97;0.83;;;13.90;99.90;;;;;;5034826;28;20455;-82
2021/08/18 02:04:49;;;;;;;2.40;0.83;;;13.90;99.90;;;;;;5034923;28;20454;-83
2021/08/18 02:07:15;;;;;;;4.07;1.80;;;13.90;99.90;;;;;;5034325;28;20838;-83
2021/08/18 02:09:42;;;;;;;1.10;0.90;;;13.90;99.90;;;;;;5034763;28;20450;-82
2021/08/18 02:12:10;;;;;;;6.10;1.10;;;13.90;99.90;;;;;;5035117;28;20562;-83
2021/08/18 02:14:37;;;;;;;3.80;1.43;;;13.80;99.90;;;;;;5034747;28;20457;-83
2021/08/18 02:17:04;;;;;;;0.87;0.63;;;13.90;99.90;;;;;;5034395;28;20443;-82
2021/08/18 02:19:32;;;;;;;2.07;0.70;;;13.90;99.90;;;;;;5034355;28;20435;-82
2021/08/18 02:21:59;;;;;;;7.27;1.40;;;13.90;99.90;;;;;;5034434;28;21017;-82
2021/08/18 02:24:26;;;;;;;0.60;0.50;;;13.80;99.90;;;;;;5034262;28;20445;-82
2021/08/18 02:26:53;;;;;;;3.17;1.27;;;13.90;99.90;;;;;;5034136;28;20485;-83
2021/08/18 02:29:19;;;;;;;0.90;0.70;;;13.90;99.90;;;;;;5033244;28;20457;-82
2021/08/18 02:31:46;;;;;;;3.47;1.00;;;13.80;99.90;;;;;;5034336;28;20462;-83
2021/08/18 02:34:13;;;;;;;1.20;0.70;;;13.80;99.90;;;;;;5034340;28;20466;-83
2021/08/18 02:36:41;;;;;;;2.33;1.03;;;13.80;99.90;;;;;;5035385;28;20533;-83
2021/08/18 02:39:08;;;;;;;2.13;0.87;;;13.70;99.90;;;;;;5033750;28;20477;-83
2021/08/18 02:41:36;;;;;;;1.40;0.60;;;13.80;99.90;;;;;;5038454;28;20438;-83
2021/08/18 02:44:02;;;;;;;2.37;1.40;;;13.80;99.90;;;;;;5034287;28;20462;-83
2021/08/18 02:46:29;;;;;;;2.70;1.03;;;13.80;99.90;;;;;;5033825;28;20474;-83
2021/08/18 02:48:56;;;;;;;1.97;1.10;;;13.80;99.90;;;;;;5033844;28;20536;-83
2021/08/18 02:51:23;;;;;;;5.53;1.27;;;13.80;99.90;;;;;;5033967;28;20458;-83
2021/08/18 02:53:51;;;;;;;2.40;0.80;;;13.80;99.90;;;;;;5033971;28;20447;-83
2021/08/18 02:56:18;;;;;;;0.70;0.50;;;13.90;99.90;;;;;;5033740;28;20442;-83
2021/08/18 02:58:44;;;;;;;0.83;0.73;;;13.90;99.90;;;;;;5033710;28;20435;-83
2021/08/18 03:01:11;;;;;;;4.40;0.93;;;13.90;99.90;;;;;;5033533;28;20458;-83
2021/08/18 03:03:38;;;;;;;1.03;1.03;;;13.90;99.90;;;;;;5033758;28;20478;-83
2021/08/18 03:06:04;;;;;;;1.40;0.50;;;13.90;99.90;;;;;;5033392;28;21013;-83
2021/08/18 03:08:31;;;;;;;0.50;0.50;;;13.80;99.90;;;;;;5033742;28;20454;-83
2021/08/18 03:10:59;;;;;;;5.80;1.33;;;13.80;99.90;;;;;;5033486;28;20467;-83
2021/08/18 03:13:27;;;;;;;1.03;0.70;;;13.70;99.90;;;;;;5033307;28;20478;-83
2021/08/18 03:15:53;;;;;;;1.17;0.70;;;13.80;99.90;;;;;;5033727;28;20803;-83
2021/08/18 03:18:20;;;;;;;1.00;0.80;;;13.80;99.90;;;;;;5033599;28;20451;-83
2021/08/18 03:20:47;;;;;;;2.50;0.80;;;13.70;99.90;;;;;;5033847;28;20447;-83
2021/08/18 03:23:14;;;;;;;1.33;0.60;;;13.80;99.90;;;;;;5033445;28;20474;-83
2021/08/18 03:25:40;;;;;;;1.70;0.83;;;13.70;99.90;;;;;;5033452;28;20451;-83
2021/08/18 03:28:09;;;;;;;0.93;0.50;;;13.70;99.90;;;;;;5033421;28;20505;-83
2021/08/18 03:30:35;;;;;;;2.93;0.83;;;13.80;99.90;;;;;;5033431;28;20453;-83
2021/08/18 03:33:02;;;;;;;1.00;0.90;;;13.70;99.90;;;;;;5033317;28;20471;-83
2021/08/18 03:35:29;;;;;;;1.43;1.00;;;13.80;99.90;;;;;;5033361;28;20450;-83
2021/08/18 03:37:56;;;;;;;0.97;0.87;;;13.80;99.90;;;;;;5033382;28;20813;-81
2021/08/18 03:40:23;;;;;;;2.80;0.77;;;13.80;99.90;;;;;;5032854;28;20490;-82
2021/08/18 03:42:49;;;;;;;0.70;0.67;;;13.80;99.90;;;;;;5033449;28;20473;-82
2021/08/18 03:45:17;;;;;;;1.13;0.63;;;13.80;99.90;;;;;;5033283;28;20439;-82
2021/08/18 03:47:44;;;;;;;1.17;0.57;;;13.80;99.90;;;;;;5033152;28;20494;-82
2021/08/18 03:50:12;;;;;;;1.03;0.50;;;13.80;99.90;;;;;;5033629;28;20458;-82
2021/08/18 03:52:40;;;;;;;0.50;0.40;;;13.80;99.90;;;;;;5033129;28;20480;-82
2021/08/18 03:55:08;;;;;;;2.20;0.50;;;13.70;99.90;;;;;;5032888;28;20458;-81
2021/08/18 03:57:35;;;;;;;1.90;0.73;;;13.80;99.90;;;;;;5032847;28;20969;-82
2021/08/18 04:00:01;;;;;;;1.00;0.50;;;13.80;99.90;;;;;;5033149;28;20457;-81
2021/08/18 04:02:30;;;;;;;9.63;1.10;;;13.80;99.90;;;;;;5033085;28;20566;-82
2021/08/18 04:04:56;;;;;;;0.90;0.57;;;13.80;99.90;;;;;;5032831;28;20462;-82
2021/08/18 04:07:23;;;;;;;0.87;0.53;;;13.80;99.90;;;;;;5032653;28;21016;-82
2021/08/18 04:09:50;;;;;;;1.13;0.80;;;13.80;99.90;;;;;;5032763;28;20981;-82
2021/08/18 04:12:16;;;;;;;0.40;0.40;;;13.90;99.90;;;;;;5032955;28;20467;-82
2021/08/18 04:14:43;;;;;;;0.80;0.50;;;13.80;99.90;;;;;;5032996;28;20447;-82
2021/08/18 04:17:10;;;;;;;0.60;0.57;;;13.80;99.90;;;;;;5033015;28;20453;-82
2021/08/18 04:19:38;;;;;;;0.97;0.60;;;13.80;99.90;;;;;;5033065;28;20451;-82
2021/08/18 04:22:06;;;;;;;2.30;0.97;;;13.80;99.90;;;;;;5032905;28;20466;-82
2021/08/18 04:24:33;;;;;;;1.93;0.53;;;13.80;99.90;;;;;;5032943;28;20453;-82
2021/08/18 04:27:00;;;;;;;1.07;0.50;;;13.80;99.90;;;;;;5032840;28;20475;-81
2021/08/18 04:29:27;;;;;;;2.00;0.50;;;13.80;99.90;;;;;;5032948;28;20454;-82
2021/08/18 04:31:54;;;;;;;2.43;1.27;;;13.80;99.90;;;;;;5032528;28;20454;-82
2021/08/18 04:34:21;;;;;;;1.17;0.30;;;13.80;99.90;;;;;;5033711;28;20537;-82
2021/08/18 04:36:49;;;;;;;0.67;0.53;;;13.80;99.90;;;;;;5032539;28;20450;-82
2021/08/18 04:39:15;;;;;;;11.60;1.10;;;13.80;99.90;;;;;;5032584;28;20482;-82
2021/08/18 04:41:42;;;;;;;0.40;0.40;;;13.80;99.90;;;;;;5032686;28;20481;-81
2021/08/18 04:44:09;;;;;;;0.50;0.50;;;13.80;99.90;;;;;;5032546;28;20434;-82
2021/08/18 04:46:36;;;;;;;0.40;0.37;;;13.80;99.90;;;;;;5032407;28;20993;-82
2021/08/18 04:49:02;;;;;;;0.70;0.43;;;13.90;99.90;;;;;;5032738;28;20446;-82
2021/08/18 04:51:29;;;;;;;0.90;0.67;;;13.80;99.90;;;;;;5032746;28;20477;-82
2021/08/18 04:53:57;;;;;;;6.20;1.10;;;13.90;99.90;;;;;;5035422;28;20961;-82
2021/08/18 04:56:24;;;;;;;1.93;0.80;;;13.90;99.90;;;;;;5036281;28;20443;-82
2021/08/18 04:58:51;;;;;;;2.70;0.50;;;13.90;99.90;;;;;;5036161;28;20819;-82
2021/08/18 05:01:17;;;;;;;0.80;0.40;;;13.80;99.90;;;;;;5035768;28;20457;-81
2021/08/18 05:03:44;;;;;;;2.70;1.10;;;13.80;99.90;;;;;;5036064;28;20453;-82
2021/08/18 05:06:11;;;;;;;1.07;0.57;;;13.80;99.90;;;;;;5035715;28;20957;-81
2021/08/18 05:08:37;;;;;;;0.70;0.70;;;13.80;99.90;;;;;;5035781;28;20485;-82
2021/08/18 05:11:05;;;;;;;1.47;0.97;;;13.80;99.90;;;;;;5035978;28;20451;-82
2021/08/18 05:13:32;;;;;;;0.50;0.43;;;13.80;99.90;;;;;;5035848;28;20477;-81
2021/08/18 05:15:59;;;;;;;0.73;0.60;;;13.90;99.90;;;;;;5035827;28;20462;-81
2021/08/18 05:18:26;;;;;;;0.60;0.40;;;13.90;99.90;;;;;;5035816;28;20454;-82
2021/08/18 05:20:52;;;;;;;0.90;0.60;;;13.90;99.90;;;;;;5035716;28;20447;-81
2021/08/18 05:23:20;;;;;;;0.40;0.40;;;14.00;99.90;;;;;;5035909;28;20463;-82
2021/08/18 05:25:47;;;;;;;0.30;0.30;;;14.00;99.90;;;;;;5035926;28;20450;-82
2021/08/18 05:28:15;;;;;;;1.13;1.03;;;14.00;99.90;;;;;;5035199;28;20852;-81
2021/08/18 05:30:42;;;;;;;0.50;0.50;;;14.00;99.90;;;;;;5035264;28;20960;-81
2021/08/18 05:33:09;;;;;;;4.53;0.83;;;14.00;99.90;;;;;;5035479;28;20470;-81
2021/08/18 05:35:35;;;;;;;0.97;0.67;;;14.00;99.90;;;;;;5035487;28;20450;-81
2021/08/18 05:38:02;;;;;;;0.90;0.60;;;14.10;99.90;;;;;;5035410;28;20450;-81
2021/08/18 05:40:29;;;;;;;0.70;0.43;;;14.10;99.90;;;;;;5035214;28;20482;-82
2021/08/18 05:42:56;;;;;;;1.63;0.60;;;14.10;99.90;;;;;;5035312;28;20493;-80
2021/08/18 05:45:24;;;;;;;4.53;0.80;;;14.20;99.90;;;;;;5035382;28;20439;-81
2021/08/18 05:47:51;;;;;;;0.77;0.40;;;14.20;99.90;;;;;;5035191;28;20505;-80
2021/08/18 05:50:17;;;;;;;1.27;0.53;;;14.20;99.90;;;;;;5035071;28;20450;-81
2021/08/18 05:52:44;;;;;;;0.67;0.67;;;14.20;99.90;;;;;;5034884;28;20493;-81
2021/08/18 05:55:11;;;;;;;1.27;0.50;;;14.30;99.90;;;;;;5035346;28;20455;-81
2021/08/18 05:57:38;;;;;;;0.60;0.50;;;14.20;99.90;;;;;;5034774;28;20836;-81
2021/08/18 06:00:07;;;;;;;0.63;0.40;;;14.30;99.90;;;;;;5035250;28;20450;-81
2021/08/18 06:02:36;;;;;;;1.20;0.50;;;14.30;99.90;;;;;;5034867;28;20470;-81
2021/08/18 06:05:03;;;;;;;0.67;0.47;;;14.40;99.90;;;;;;5034849;28;20447;-81
2021/08/18 06:07:29;;;;;;;1.17;0.70;;;14.40;99.90;;;;;;5034790;28;20485;-81
2021/08/18 06:09:56;;;;;;;0.50;0.50;;;14.40;99.90;;;;;;5034901;28;20451;-81
2021/08/18 06:12:23;;;;;;;2.90;0.90;;;14.50;99.90;;;;;;5034722;28;20471;-81
2021/08/18 06:14:50;;;;;;;4.40;1.20;;;14.50;99.90;;;;;;5034502;28;20439;-80
2021/08/18 06:17:17;;;;;;;1.10;0.50;;;14.60;99.90;;;;;;5034704;28;20446;-82
2021/08/18 06:19:45;;;;;;;0.63;0.60;;;14.60;99.90;;;;;;5034347;28;20454;-81
2021/08/18 06:22:12;;;;;;;0.60;0.40;;;14.60;99.90;;;;;;5034934;28;20482;-81
2021/08/18 06:24:43;;;;;;;1.07;0.87;;;14.60;99.90;;;;;;5034568;28;20453;-81
2021/08/18 06:27:12;;;;;;;0.63;0.50;;;14.60;99.90;;;;;;5034764;28;20466;-81
2021/08/18 06:29:39;;;;;;;4.77;0.80;;;14.80;99.90;;;;;;5034214;28;20468;-81
2021/08/18 06:32:07;;;;;;;1.20;0.60;;;14.80;99.90;;;;;;5034367;28;20474;-81
2021/08/18 06:34:34;;;;;;;1.27;0.67;;;14.90;99.90;;;;;;5034369;28;20461;-81
2021/08/18 06:37:02;;;;;;;1.50;0.40;;;15.00;99.90;;;;;;5034044;28;20828;-81
2021/08/18 06:39:30;;;;;;;0.93;0.40;;;15.00;99.90;;;;;;5033978;28;20470;-82
2021/08/18 06:41:57;;;;;;;1.13;0.40;;;15.10;99.90;;;;;;5034198;28;20505;-82
2021/08/18 06:44:24;;;;;;;1.43;0.63;;;15.20;99.90;;;;;;5034174;28;20454;-82
2021/08/18 06:46:51;;;;;;;0.90;0.40;;;15.40;99.90;;;;;;5034017;28;20422;-81
2021/08/18 06:49:17;;;;;;;0.77;0.50;;;15.50;99.90;;;;;;5036450;28;20471;-82
2021/08/18 06:51:44;;;;;;;1.43;0.60;;;15.50;99.90;;;;;;5033954;28;20447;-83
2021/08/18 06:54:13;;;;;;;1.33;0.70;;;15.60;99.90;;;;;;5034228;28;20457;-82
2021/08/18 06:56:39;;;;;;;1.07;0.90;;;15.70;99.90;;;;;;5033951;28;20458;-82
2021/08/18 06:59:06;;;;;;;1.53;0.30;;;15.70;99.90;;;;;;5033714;28;20423;-82
2021/08/18 07:01:33;;;;;;;0.80;0.60;;;15.70;99.90;;;;;;5033795;28;20458;-83
2021/08/18 07:04:01;;;;;;;3.10;1.57;;;15.80;99.90;;;;;;5033870;28;20431;-82
2021/08/18 07:06:28;;;;;;;0.83;0.83;;;16.00;99.90;;;;;;5034286;28;20446;-82
2021/08/18 07:08:55;;;;;;;1.00;0.80;;;16.20;99.90;;;;;;5033702;28;20471;-82
2021/08/18 07:11:23;;;;;;;1.07;0.67;;;16.50;99.90;;;;;;5033647;28;20447;-82
2021/08/18 07:13:50;;;;;;;2.00;1.20;;;16.60;99.90;;;;;;5033636;28;20960;-81
2021/08/18 07:16:16;;;;;;;1.23;0.60;;;16.70;99.90;;;;;;5033109;28;20453;-82
2021/08/18 07:18:43;;;;;;;1.10;0.60;;;16.80;99.90;;;;;;5033603;28;20442;-82
2021/08/18 07:21:10;;;;;;;2.00;0.80;;;16.80;99.90;;;;;;5033356;28;20441;-82
2021/08/18 07:23:37;;;;;;;0.40;0.30;;;16.70;99.90;;;;;;5033457;28;20490;-81
2021/08/18 07:26:03;;;;;;;1.07;0.60;;;16.60;99.90;;;;;;5033523;28;20449;-82
2021/08/18 07:28:32;;;;;;;2.60;0.73;;;16.60;99.90;;;;;;5033466;28;20485;-82
2021/08/18 07:30:58;;;;;;;0.73;0.53;;;16.50;99.90;;;;;;5034166;28;20447;-82
2021/08/18 07:33:25;;;;;;;1.63;0.50;;;16.60;99.90;;;;;;5033141;28;20459;-81
2021/08/18 07:35:52;;;;;;;0.50;0.50;;;16.80;99.90;;;;;;5033097;28;20825;-82
2021/08/18 07:38:18;;;;;;;1.70;0.63;;;16.90;99.90;;;;;;5033373;28;20938;-82
2021/08/18 07:40:46;;;;;;;1.43;0.50;;;17.00;99.90;;;;;;5032776;28;20467;-82
2021/08/18 07:43:13;;;;;;;2.40;0.47;;;17.10;99.90;;;;;;5033199;28;20470;-82
2021/08/18 07:45:41;;;;;;;1.07;0.40;;;17.10;99.90;;;;;;5032863;28;20942;-82
2021/08/18 07:48:08;;;;;;;0.40;0.40;;;17.20;99.90;;;;;;5032917;28;20483;-81
2021/08/18 07:50:35;;;;;;;0.60;0.50;;;17.40;99.90;;;;;;5032941;28;21009;-82
2021/08/18 07:53:02;;;;;;;0.37;0.33;;;17.40;99.90;;;;;;5032966;28;20828;-82
2021/08/18 07:55:29;;;;;;;0.50;0.50;;;17.50;99.90;;;;;;5032872;28;20457;-81
2021/08/18 07:57:55;;;;;;;0.40;0.30;;;17.50;99.90;;;;;;5032939;28;20449;-81
2021/08/18 08:00:22;;;;;;;0.63;0.40;;;17.50;99.90;;;;;;5033162;28;20455;-82
2021/08/18 08:02:50;;;;;;;0.60;0.40;;;17.50;99.90;;;;;;5033039;28;20474;-81
2021/08/18 08:05:18;;;;;;;0.50;0.50;;;17.40;99.90;;;;;;5033196;28;20457;-82
2021/08/18 08:07:46;;;;;;;0.60;0.40;;;17.40;99.90;;;;;;5032958;28;20981;-82
2021/08/18 08:10:14;;;;;;;0.40;0.40;;;17.40;99.90;;;;;;5033064;28;20454;-82
2021/08/18 08:12:41;;;;;;;0.60;0.60;;;17.60;99.90;;;;;;5032995;28;20478;-82
2021/08/18 08:15:10;;;;;;;0.50;0.40;;;17.60;99.90;;;;;;5033001;28;20457;-82
2021/08/18 08:17:37;;;;;;;0.73;0.50;;;17.60;99.90;;;;;;5032681;28;20446;-82
2021/08/18 08:20:07;;;;;;;0.40;0.30;;;17.50;99.90;;;;;;5032937;28;20454;-82
2021/08/18 08:22:34;;;;;;;0.40;0.30;;;17.50;99.90;;;;;;5032687;28;21001;-81
2021/08/18 08:25:00;;;;;;;0.90;0.50;;;17.50;99.90;;;;;;5032675;28;20438;-81
2021/08/18 08:27:27;;;;;;;0.50;0.40;;;17.70;99.90;;;;;;5033691;28;20454;-80
2021/08/18 08:29:54;;;;;;;0.40;0.30;;;17.80;99.90;;;;;;5036484;28;20457;-80
2021/08/18 08:32:20;;;;;;;0.53;0.40;;;17.90;99.90;;;;;;5036616;28;20470;-81
2021/08/18 08:34:47;;;;;;;0.93;0.40;;;17.90;99.90;;;;;;5036629;28;20449;-81
2021/08/18 08:37:17;;;;;;;0.30;0.30;;;17.80;99.90;;;;;;5036344;28;20438;-80
2021/08/18 08:39:44;;;;;;;0.30;0.30;;;17.70;99.90;;;;;;5036513;28;20458;-81
2021/08/18 08:42:11;;;;;;;0.30;0.30;;;17.60;99.90;;;;;;5036470;28;20849;-81
2021/08/18 08:44:39;;;;;;;0.53;0.40;;;17.60;99.90;;;;;;5018726;28;20541;-80
2021/08/18 08:47:08;;;;;;;0.60;0.30;;;17.50;99.90;;;;;;5036399;28;20447;-80
2021/08/18 08:49:36;;;;;;;0.30;0.30;;;17.50;99.90;;;;;;5036011;28;20482;-80
2021/08/18 08:52:03;;;;;;;0.30;0.20;;;17.50;99.90;;;;;;5036007;28;20823;-80
2021/08/18 08:54:31;;;;;;;0.30;0.30;;;17.40;99.90;;;;;;5036108;28;20870;-80
2021/08/18 08:56:58;;;;;;;0.40;0.30;;;17.40;99.90;;;;;;5035938;28;20462;-80
2021/08/18 08:59:25;;;;;;;0.30;0.30;;;17.40;99.90;;;;;;5035945;28;20957;-80
2021/08/18 09:02:03;;;;;;;0.30;0.30;;;17.40;99.90;;;;;;5036082;28;20466;-80
2021/08/18 09:04:31;;;;;;;0.33;0.27;;;17.40;99.90;;;;;;5036064;28;20446;-81
2021/08/18 09:07:08;;;;;;;0.30;0.30;;;17.40;99.90;;;;;;5035703;28;20442;-80
2021/08/18 09:09:38;;;;;;;0.30;0.30;;;17.40;99.90;;;;;;5036033;28;20471;-86
2021/08/18 09:12:07;;;;;;;0.30;0.30;;;17.40;99.90;;;;;;5036078;28;20853;-81
2021/08/18 09:14:34;;;;;;;0.40;0.40;;;17.40;99.90;;;;;;5035831;28;20454;-80
2021/08/18 09:17:01;;;;;;;0.50;0.37;;;17.40;99.90;;;;;;5035521;28;20818;-80
2021/08/18 09:19:29;;;;;;;0.40;0.30;;;17.50;99.90;;;;;;5035812;28;20465;-80
2021/08/18 09:22:04;;;;;;;0.40;0.30;;;17.40;99.90;;;;;;5035746;28;20462;-80
2021/08/18 09:24:31;;;;;;;0.30;0.30;;;17.50;99.90;;;;;;5036430;28;20451;-80
2021/08/18 09:27:06;;;;;;;0.40;0.30;;;17.50;99.90;;;;;;5035718;28;20412;-80
2021/08/18 09:29:36;;;;;;;0.30;0.30;;;17.60;99.90;;;;;;5035877;28;20470;-80
2021/08/18 09:32:23;;;;;;;2.20;0.30;;;17.80;99.90;;;;;;5035248;28;20532;-80
2021/08/18 09:34:52;;;;;;;0.40;0.37;;;18.00;99.90;;;;;;5035320;28;20411;-80
2021/08/18 09:37:19;;;;;;;0.30;0.27;;;18.10;99.90;;;;;;5035249;28;20416;-80
2021/08/18 09:39:46;;;;;;;0.30;0.30;;;18.30;99.90;;;;;;5034682;28;20470;-80
2021/08/18 09:42:31;;;;;;;0.60;0.30;;;18.30;99.90;;;;;;5035514;28;20490;-80
2021/08/18 09:45:18;;;;;;;0.37;0.37;;;18.40;99.90;;;;;;5035077;28;20819;-81
2021/08/18 09:47:53;;;;;;;0.30;0.30;;;18.40;99.90;;;;;;5034994;28;20427;-80
2021/08/18 09:50:22;;;;;;;0.40;0.30;;;18.30;99.90;;;;;;5035285;28;20446;-80
2021/08/18 09:52:50;;;;;;;0.30;0.20;;;18.20;99.90;;;;;;5035029;28;20443;-80
2021/08/18 09:55:22;;;;;;;0.30;0.30;;;18.10;99.90;;;;;;5035243;28;20461;-80
2021/08/18 09:57:50;;;;;;;0.40;0.30;;;18.10;99.90;;;;;;5035195;28;20423;-80
2021/08/18 10:00:17;;;;;;;0.30;0.20;;;18.00;99.90;;;;;;5034905;28;20432;-80
2021/08/18 10:02:44;;;;;;;0.30;0.30;;;17.90;99.90;;;;;;5035000;28;20473;-80
2021/08/18 10:05:12;;;;;;;0.30;0.27;;;17.90;99.90;;;;;;5035039;28;20427;-80
2021/08/18 10:07:39;;;;;;;0.30;0.27;;;17.90;99.90;;;;;;5034910;28;20945;-80
2021/08/18 10:10:07;;;;;;;0.50;0.50;;;18.10;99.90;;;;;;5034561;28;20471;-80
2021/08/18 10:12:35;;;;;;;0.40;0.30;;;18.30;99.90;;;;;;5034518;28;20475;-80
2021/08/18 10:15:04;;;;;;;0.30;0.30;;;18.50;99.90;;;;;;5034803;28;20446;-80
2021/08/18 10:17:32;;;;;;;0.40;0.30;;;18.60;99.90;;;;;;5034483;28;20494;-80
2021/08/18 10:20:00;;;;;;;0.30;0.30;;;18.60;99.90;;;;;;5034722;28;20435;-80
2021/08/18 10:22:27;;;;;;;0.30;0.30;;;18.50;99.90;;;;;;5034629;28;20474;-80
2021/08/18 10:24:55;;;;;;;0.30;0.30;;;18.40;99.90;;;;;;5034637;28;20434;-80
2021/08/18 10:27:47;;;;;;;0.50;0.30;;;18.20;99.90;;;;;;5035256;28;20449;-79
2021/08/18 10:30:22;;;;;;;0.60;0.30;;;18.20;99.90;;;;;;5034529;28;20485;-80
2021/08/18 10:32:49;;;;;;;0.40;0.40;;;18.20;99.90;;;;;;5034372;28;20466;-79
2021/08/18 10:35:42;;;;;;;0.30;0.30;;;18.10;99.90;;;;;;5034167;28;20780;-79
2021/08/18 10:38:34;;;;;;;0.30;0.20;;;18.20;99.90;;;;;;5034451;28;20450;-80
2021/08/18 10:41:02;;;;;;;2.60;0.43;;;18.30;99.90;;;;;;5034041;28;20777;-80
2021/08/18 10:43:59;;;;;;;0.30;0.30;;;18.40;99.90;;;;;;5034180;28;20447;-79
2021/08/18 10:46:27;;;;;;;0.30;0.30;;;18.40;99.90;;;;;;5033919;28;20936;-80
2021/08/18 10:49:04;;;;;;;0.50;0.40;;;18.40;99.90;;;;;;5033784;28;20521;-80
2021/08/18 10:51:50;;;;;;;0.30;0.30;;;18.50;99.90;;;;;;5033042;28;20411;-80
2021/08/18 10:54:42;;;;;;;0.57;0.30;;;18.60;99.90;;;;;;5034044;28;20521;-80
2021/08/18 10:57:40;;;;;;;0.30;0.30;;;18.60;99.90;;;;;;5034028;28;20437;-80
2021/08/18 11:00:15;;;;;;;0.40;0.30;;;18.70;99.90;;;;;;5021708;28;20443;-80
2021/08/18 11:03:08;;;;;;;0.70;0.40;;;18.70;99.90;;;;;;5033853;28;20472;-80
2021/08/18 11:05:51;;;;;;;0.30;0.30;;;18.70;99.90;;;;;;5014615;28;20446;-80
2021/08/18 11:08:20;;;;;;;0.30;0.30;;;18.80;99.90;;;;;;5033471;28;20915;-80
2021/08/18 11:11:18;;;;;;;0.30;0.30;;;18.90;99.90;;;;;;5033835;28;20446;-79
2021/08/18 11:13:48;;;;;;;0.47;0.30;;;19.10;99.90;;;;;;5033780;28;20419;-80
2021/08/18 11:16:17;;;;;;;0.40;0.30;;;19.40;99.90;;;;;;5033686;28;20443;-80
2021/08/18 11:18:54;;;;;;;0.30;0.30;;;19.40;99.90;;;;;;5033859;28;20446;-80
2021/08/18 11:21:24;;;;;;;0.40;0.30;;;19.40;99.90;;;;;;5033245;28;20442;-80
2021/08/18 11:23:54;;;;;;;0.40;0.30;;;19.30;99.90;;;;;;5033421;28;20426;-80
2021/08/18 11:26:24;;;;;;;0.60;0.30;;;19.30;99.90;;;;;;5033542;28;20438;-80
2021/08/18 11:28:57;;;;;;;0.47;0.33;;;19.20;99.90;;;;;;5033515;28;20525;-80
2021/08/18 11:31:39;;;;;;;0.30;0.30;;;19.10;99.90;;;;;;5033493;28;20434;-80
2021/08/18 11:34:20;;;;;;;0.40;0.30;;;19.20;99.90;;;;;;5033510;28;20443;-80
2021/08/18 11:36:47;;;;;;;0.37;0.33;;;19.30;99.90;;;;;;5033490;28;20434;-80
2021/08/18 11:39:15;;;;;;;0.40;0.40;;;19.50;99.90;;;;;;5032968;28;21004;-80
2021/08/18 11:41:44;;;;;;;0.47;0.27;;;19.70;99.90;;;;;;5033335;28;20462;-80
2021/08/18 11:44:25;;;;;;;0.50;0.40;;;19.80;99.90;;;;;;5033075;28;20919;-81
2021/08/18 11:46:52;;;;;;;0.70;0.40;;;19.90;99.90;;;;;;5033374;28;20434;-79
2021/08/18 11:49:24;;;;;;;0.40;0.30;;;20.00;99.90;;;;;;5033277;28;20471;-79
2021/08/18 11:51:51;;;;;;;0.50;0.40;;;19.90;99.90;;;;;;5033231;28;20466;-80
2021/08/18 11:54:23;;;;;;;0.40;0.30;;;19.90;99.90;;;;;;5033053;28;20423;-79
2021/08/18 11:57:00;;;;;;;0.50;0.30;;;19.80;99.90;;;;;;5033064;28;20824;-79
2021/08/18 11:59:26;;;;;;;0.40;0.30;;;20.00;99.90;;;;;;5033312;28;20453;-79
2021/08/18 12:01:55;;;;;;;0.40;0.30;;;20.10;99.90;;;;;;5034590;28;20458;-79
2021/08/18 12:04:24;;;;;;;0.30;0.30;;;20.30;99.90;;;;;;5037109;28;20890;-78
2021/08/18 12:07:07;;;;;;;0.37;0.37;;;20.50;99.90;;;;;;5037407;28;20453;-79
2021/08/18 12:09:34;;;;;;;0.30;0.30;;;20.50;99.90;;;;;;5037197;28;20477;-79
2021/08/18 12:12:06;;;;;;;0.40;0.30;;;20.50;99.90;;;;;;5037074;28;20465;-79
2021/08/18 12:14:38;;;;;;;0.30;0.30;;;20.50;99.90;;;;;;5036882;28;20418;-79
2021/08/18 12:17:05;;;;;;;0.37;0.30;;;20.60;99.90;;;;;;5037089;28;20430;-79
2021/08/18 12:19:38;;;;;;;0.50;0.37;;;20.60;99.90;;;;;;5037013;28;20434;-81
2021/08/18 12:22:17;;;;;;;0.30;0.30;;;20.60;99.90;;;;;;5036895;28;20474;-80
2021/08/18 12:24:47;;;;;;;0.30;0.30;;;20.60;99.90;;;;;;5036605;28;20810;-79
2021/08/18 12:27:17;;;;;;;0.30;0.30;;;20.40;99.90;;;;;;5036874;28;20434;-79
2021/08/18 12:29:45;;;;;;;0.90;0.40;;;20.30;99.90;;;;;;5036530;28;20463;-79
2021/08/18 12:32:13;;;;;;;0.50;0.30;;;20.10;99.90;;;;;;5036691;28;20474;-79
2021/08/18 12:34:46;;;;;;;0.40;0.40;;;20.10;99.90;;;;;;5037603;28;20434;-79
2021/08/18 12:37:17;;;;;;;0.30;0.30;;;20.00;99.90;;;;;;5036695;28;20439;-79
2021/08/18 12:39:45;;;;;;;0.43;0.37;;;19.90;99.90;;;;;;5035989;28;20488;-79
2021/08/18 12:42:22;;;;;;;0.40;0.30;;;20.00;99.90;;;;;;5036498;28;20450;-79
2021/08/18 12:45:00;;;;;;;4.30;1.07;;;20.10;99.90;;;;;;5036541;28;20438;-79
2021/08/18 12:47:30;;;;;;;0.30;0.30;;;20.10;99.90;;;;;;5036511;28;20430;-81
2021/08/18 12:49:58;;;;;;;0.60;0.40;;;20.10;99.90;;;;;;5036332;28;20495;-79
2021/08/18 12:52:25;;;;;;;0.40;0.33;;;20.10;99.90;;;;;;5036281;28;20474;-79
2021/08/18 12:54:53;;;;;;;0.37;0.37;;;20.10;99.90;;;;;;5036062;28;20780;-79
2021/08/18 12:57:20;;;;;;;1.07;0.30;;;20.10;99.90;;;;;;5036058;28;20947;-80